sensor_id;sensor_type;location;lat;lon;timestamp;pressure;altitude;pressure_sealevel;temperature;humidity
31538;BME280;18147;51.952;6.146;2023-05-07T00:01:56;101555.56;;;15.90;100.00
31538;BME280;18147;51.952;6.146;2023-05-07T00:04:22;101555.63;;;16.01;100.00
31538;BME280;18147;51.952;6.146;2023-05-07T00:06:47;101555.53;;;16.02;100.00
31538;BME280;18147;51.952;6.146;2023-05-07T00:09:13;101563.81;;;15.99;100.00
31538;BME280;18147;51.952;6.146;2023-05-07T00:11:40;101561.59;;;15.93;100.00
31538;BME280;18147;51.952;6.146;2023-05-07T00:14:05;101565.53;;;16.00;100.00
31538;BME280;18147;51.952;6.146;2023-05-07T00:16:31;101565.31;;;16.27;100.00
31538;BME280;18147;51.952;6.146;2023-05-07T00:18:57;101564.03;;;16.20;100.00
31538;BME280;18147;51.952;6.146;2023-05-07T00:21:22;101563.31;;;16.18;100.00
31538;BME280;18147;51.952;6.146;2023-05-07T00:23:52;101560.88;;;16.26;100.00
31538;BME280;18147;51.952;6.146;2023-05-07T00:26:17;101562.19;;;16.21;100.00
31538;BME280;18147;51.952;6.146;2023-05-07T00:28:44;101554.53;;;16.27;100.00
31538;BME280;18147;51.952;6.146;2023-05-07T00:31:10;101560.19;;;16.36;100.00
31538;BME280;18147;51.952;6.146;2023-05-07T00:33:36;101561.09;;;16.47;100.00
31538;BME280;18147;51.952;6.146;2023-05-07T00:36:01;101554.47;;;16.51;100.00
31538;BME280;18147;51.952;6.146;2023-05-07T00:38:27;101547.72;;;16.46;100.00
31538;BME280;18147;51.952;6.146;2023-05-07T00:40:52;101546.97;;;16.33;100.00
31538;BME280;18147;51.952;6.146;2023-05-07T00:43:18;101549.38;;;16.24;100.00
31538;BME280;18147;51.952;6.146;2023-05-07T00:45:44;101549.38;;;16.24;100.00
31538;BME280;18147;51.952;6.146;2023-05-07T00:48:11;101546.44;;;15.92;100.00
31538;BME280;18147;51.952;6.146;2023-05-07T00:50:36;101539.91;;;15.84;100.00
31538;BME280;18147;51.952;6.146;2023-05-07T00:53:02;101534.66;;;15.82;100.00
31538;BME280;18147;51.952;6.146;2023-05-07T00:55:31;101532.22;;;15.90;100.00
31538;BME280;18147;51.952;6.146;2023-05-07T00:57:56;101524.78;;;15.70;100.00
31538;BME280;18147;51.952;6.146;2023-05-07T01:00:23;101532.75;;;15.71;100.00
31538;BME280;18147;51.952;6.146;2023-05-07T01:02:50;101527.38;;;15.71;100.00
31538;BME280;18147;51.952;6.146;2023-05-07T01:05:17;101513.56;;;15.76;100.00
31538;BME280;18147;51.952;6.146;2023-05-07T01:07:44;101522.06;;;15.83;100.00
31538;BME280;18147;51.952;6.146;2023-05-07T01:10:11;101517.19;;;15.88;100.00
31538;BME280;18147;51.952;6.146;2023-05-07T01:12:39;101514.88;;;15.94;100.00
31538;BME280;18147;51.952;6.146;2023-05-07T01:15:08;101515.75;;;15.95;100.00
31538;BME280;18147;51.952;6.146;2023-05-07T01:17:40;101519.81;;;15.76;100.00
31538;BME280;18147;51.952;6.146;2023-05-07T01:20:09;101518.50;;;15.82;100.00
31538;BME280;18147;51.952;6.146;2023-05-07T01:22:37;101522.66;;;15.86;100.00
31538;BME280;18147;51.952;6.146;2023-05-07T01:25:07;101528.81;;;15.88;100.00
31538;BME280;18147;51.952;6.146;2023-05-07T01:27:37;101523.13;;;15.80;100.00
31538;BME280;18147;51.952;6.146;2023-05-07T01:30:06;101518.84;;;15.77;100.00
31538;BME280;18147;51.952;6.146;2023-05-07T01:33:00;101517.13;;;15.76;100.00
31538;BME280;18147;51.952;6.146;2023-05-07T01:35:29;101518.84;;;15.77;100.00
31538;BME280;18147;51.952;6.146;2023-05-07T01:37:58;101510.78;;;15.77;100.00
31538;BME280;18147;51.952;6.146;2023-05-07T01:40:27;101510.88;;;15.76;100.00
31538;BME280;18147;51.952;6.146;2023-05-07T01:42:54;101507.44;;;15.74;100.00
31538;BME280;18147;51.952;6.146;2023-05-07T01:45:19;101513.97;;;15.83;100.00
31538;BME280;18147;51.952;6.146;2023-05-07T01:47:45;101514.25;;;15.91;100.00
31538;BME280;18147;51.952;6.146;2023-05-07T01:50:11;101508.25;;;15.87;100.00
31538;BME280;18147;51.952;6.146;2023-05-07T01:52:39;101513.63;;;15.87;100.00
31538;BME280;18147;51.952;6.146;2023-05-07T01:55:06;101504.72;;;15.87;100.00
31538;BME280;18147;51.952;6.146;2023-05-07T01:57:32;101506.44;;;15.88;100.00
31538;BME280;18147;51.952;6.146;2023-05-07T01:59:57;101510.19;;;15.85;100.00
31538;BME280;18147;51.952;6.146;2023-05-07T02:02:23;101509.97;;;15.88;100.00
31538;BME280;18147;51.952;6.146;2023-05-07T02:04:49;101517.53;;;15.83;100.00
31538;BME280;18147;51.952;6.146;2023-05-07T02:07:16;101519.44;;;15.81;100.00
31538;BME280;18147;51.952;6.146;2023-05-07T02:09:42;101516.88;;;15.79;100.00
31538;BME280;18147;51.952;6.146;2023-05-07T02:12:08;101524.09;;;15.79;100.00
31538;BME280;18147;51.952;6.146;2023-05-07T02:14:34;101520.22;;;15.83;100.00
31538;BME280;18147;51.952;6.146;2023-05-07T02:17:00;101529.25;;;15.82;100.00
31538;BME280;18147;51.952;6.146;2023-05-07T02:19:26;101516.16;;;15.77;100.00
31538;BME280;18147;51.952;6.146;2023-05-07T02:21:52;101520.78;;;15.75;100.00
31538;BME280;18147;51.952;6.146;2023-05-07T02:24:18;101518.41;;;15.71;100.00
31538;BME280;18147;51.952;6.146;2023-05-07T02:26:44;101518.78;;;15.66;100.00
31538;BME280;18147;51.952;6.146;2023-05-07T02:29:10;101517.47;;;15.59;100.00
31538;BME280;18147;51.952;6.146;2023-05-07T02:31:37;101518.66;;;15.68;100.00
31538;BME280;18147;51.952;6.146;2023-05-07T02:34:02;101516.84;;;15.68;100.00
31538;BME280;18147;51.952;6.146;2023-05-07T02:36:29;101514.91;;;15.58;100.00
31538;BME280;18147;51.952;6.146;2023-05-07T02:39:06;101518.47;;;15.45;100.00
31538;BME280;18147;51.952;6.146;2023-05-07T02:41:31;101504.50;;;15.53;100.00
31538;BME280;18147;51.952;6.146;2023-05-07T02:43:57;101514.59;;;15.49;100.00
31538;BME280;18147;51.952;6.146;2023-05-07T02:46:22;101507.97;;;15.42;100.00
31538;BME280;18147;51.952;6.146;2023-05-07T02:48:56;101509.50;;;15.34;100.00
31538;BME280;18147;51.952;6.146;2023-05-07T02:51:22;101514.56;;;15.25;100.00
31538;BME280;18147;51.952;6.146;2023-05-07T02:53:48;101521.16;;;15.21;100.00
31538;BME280;18147;51.952;6.146;2023-05-07T02:56:14;101520.94;;;15.12;100.00
31538;BME280;18147;51.952;6.146;2023-05-07T02:58:40;101512.44;;;15.05;100.00
31538;BME280;18147;51.952;6.146;2023-05-07T03:01:08;101525.75;;;15.19;100.00
31538;BME280;18147;51.952;6.146;2023-05-07T03:03:52;101522.09;;;15.20;100.00
31538;BME280;18147;51.952;6.146;2023-05-07T03:06:18;101534.13;;;15.27;100.00
31538;BME280;18147;51.952;6.146;2023-05-07T03:08:43;101534.88;;;15.29;100.00
31538;BME280;18147;51.952;6.146;2023-05-07T03:11:09;101535.31;;;15.36;100.00
31538;BME280;18147;51.952;6.146;2023-05-07T03:13:35;101531.50;;;15.39;100.00
31538;BME280;18147;51.952;6.146;2023-05-07T03:16:01;101527.97;;;15.38;100.00
31538;BME280;18147;51.952;6.146;2023-05-07T03:18:27;101536.72;;;15.16;100.00
31538;BME280;18147;51.952;6.146;2023-05-07T03:20:53;101533.81;;;15.19;100.00
31538;BME280;18147;51.952;6.146;2023-05-07T03:23:18;101538.22;;;15.20;100.00
31538;BME280;18147;51.952;6.146;2023-05-07T03:25:44;101539.38;;;15.29;100.00
31538;BME280;18147;51.952;6.146;2023-05-07T03:28:09;101532.41;;;15.26;100.00
31538;BME280;18147;51.952;6.146;2023-05-07T03:30:40;101534.69;;;15.07;100.00
31538;BME280;18147;51.952;6.146;2023-05-07T03:33:06;101536.09;;;15.00;100.00
31538;BME280;18147;51.952;6.146;2023-05-07T03:35:32;101537.19;;;14.97;100.00
31538;BME280;18147;51.952;6.146;2023-05-07T03:37:58;101539.22;;;14.94;100.00
31538;BME280;18147;51.952;6.146;2023-05-07T03:40:27;101527.81;;;14.90;100.00
31538;BME280;18147;51.952;6.146;2023-05-07T03:42:53;101540.28;;;14.79;100.00
31538;BME280;18147;51.952;6.146;2023-05-07T03:45:22;101535.88;;;14.77;100.00
31538;BME280;18147;51.952;6.146;2023-05-07T03:47:56;101539.09;;;14.70;100.00
31538;BME280;18147;51.952;6.146;2023-05-07T03:50:23;101540.72;;;14.72;100.00
31538;BME280;18147;51.952;6.146;2023-05-07T03:52:49;101542.44;;;14.86;100.00
31538;BME280;18147;51.952;6.146;2023-05-07T03:55:17;101541.69;;;14.84;100.00
31538;BME280;18147;51.952;6.146;2023-05-07T03:57:48;101537.25;;;14.96;100.00
31538;BME280;18147;51.952;6.146;2023-05-07T04:00:13;101538.69;;;15.01;100.00
31538;BME280;18147;51.952;6.146;2023-05-07T04:02:48;101537.81;;;14.88;100.00
31538;BME280;18147;51.952;6.146;2023-05-07T04:05:18;101539.31;;;14.54;100.00
31538;BME280;18147;51.952;6.146;2023-05-07T04:07:47;101553.50;;;14.69;100.00
31538;BME280;18147;51.952;6.146;2023-05-07T04:10:16;101542.84;;;14.80;100.00
31538;BME280;18147;51.952;6.146;2023-05-07T04:12:44;101543.19;;;14.75;100.00
31538;BME280;18147;51.952;6.146;2023-05-07T04:15:14;101542.34;;;14.88;100.00
31538;BME280;18147;51.952;6.146;2023-05-07T04:17:40;101538.16;;;14.71;100.00
31538;BME280;18147;51.952;6.146;2023-05-07T04:20:14;101546.50;;;14.79;100.00
31538;BME280;18147;51.952;6.146;2023-05-07T04:22:40;101547.38;;;14.92;100.00
31538;BME280;18147;51.952;6.146;2023-05-07T04:25:07;101555.94;;;15.10;100.00
31538;BME280;18147;51.952;6.146;2023-05-07T04:27:35;101555.53;;;14.91;100.00
31538;BME280;18147;51.952;6.146;2023-05-07T04:30:02;101548.97;;;14.95;100.00
31538;BME280;18147;51.952;6.146;2023-05-07T04:32:32;101561.44;;;15.09;100.00
31538;BME280;18147;51.952;6.146;2023-05-07T04:34:57;101552.47;;;15.46;100.00
31538;BME280;18147;51.952;6.146;2023-05-07T04:37:23;101548.41;;;15.28;100.00
31538;BME280;18147;51.952;6.146;2023-05-07T04:39:49;101555.16;;;15.46;100.00
31538;BME280;18147;51.952;6.146;2023-05-07T04:42:18;101556.09;;;15.45;100.00
31538;BME280;18147;51.952;6.146;2023-05-07T04:44:44;101559.63;;;15.22;100.00
31538;BME280;18147;51.952;6.146;2023-05-07T04:47:11;101553.66;;;15.42;100.00
31538;BME280;18147;51.952;6.146;2023-05-07T04:49:38;101548.00;;;15.21;100.00
31538;BME280;18147;51.952;6.146;2023-05-07T04:52:05;101558.75;;;15.21;100.00
31538;BME280;18147;51.952;6.146;2023-05-07T04:54:32;101558.59;;;15.48;100.00
31538;BME280;18147;51.952;6.146;2023-05-07T04:56:57;101555.44;;;15.54;100.00
31538;BME280;18147;51.952;6.146;2023-05-07T04:59:23;101561.69;;;15.55;100.00
31538;BME280;18147;51.952;6.146;2023-05-07T05:01:49;101564.75;;;15.25;100.00
31538;BME280;18147;51.952;6.146;2023-05-07T05:04:15;101574.94;;;15.45;100.00
31538;BME280;18147;51.952;6.146;2023-05-07T05:06:40;101579.56;;;15.31;100.00
31538;BME280;18147;51.952;6.146;2023-05-07T05:09:07;101576.59;;;15.22;100.00
31538;BME280;18147;51.952;6.146;2023-05-07T05:11:35;101586.91;;;15.03;100.00
31538;BME280;18147;51.952;6.146;2023-05-07T05:14:01;101589.47;;;15.05;100.00
31538;BME280;18147;51.952;6.146;2023-05-07T05:16:27;101582.59;;;15.00;100.00
31538;BME280;18147;51.952;6.146;2023-05-07T05:18:53;101591.63;;;14.99;100.00
31538;BME280;18147;51.952;6.146;2023-05-07T05:21:20;101585.75;;;15.07;100.00
31538;BME280;18147;51.952;6.146;2023-05-07T05:23:49;101590.34;;;14.80;100.00
31538;BME280;18147;51.952;6.146;2023-05-07T05:26:19;101584.66;;;14.84;100.00
31538;BME280;18147;51.952;6.146;2023-05-07T05:28:46;101590.56;;;14.76;100.00
31538;BME280;18147;51.952;6.146;2023-05-07T05:31:13;101598.06;;;14.84;100.00
31538;BME280;18147;51.952;6.146;2023-05-07T05:33:40;101598.50;;;14.78;100.00
31538;BME280;18147;51.952;6.146;2023-05-07T05:36:06;101607.53;;;14.77;100.00
31538;BME280;18147;51.952;6.146;2023-05-07T05:38:36;101604.16;;;14.61;100.00
31538;BME280;18147;51.952;6.146;2023-05-07T05:41:02;101607.19;;;14.69;100.00
31538;BME280;18147;51.952;6.146;2023-05-07T05:43:28;101606.13;;;14.71;100.00
31538;BME280;18147;51.952;6.146;2023-05-07T05:45:55;101608.81;;;14.84;100.00
31538;BME280;18147;51.952;6.146;2023-05-07T05:48:22;101613.97;;;15.00;100.00
31538;BME280;18147;51.952;6.146;2023-05-07T05:50:48;101607.66;;;15.14;100.00
31538;BME280;18147;51.952;6.146;2023-05-07T05:53:15;101617.84;;;15.09;100.00
31538;BME280;18147;51.952;6.146;2023-05-07T05:55:41;101612.50;;;15.21;100.00
31538;BME280;18147;51.952;6.146;2023-05-07T05:58:08;101617.13;;;15.07;100.00
31538;BME280;18147;51.952;6.146;2023-05-07T06:00:39;101610.31;;;14.88;100.00
31538;BME280;18147;51.952;6.146;2023-05-07T06:03:06;101624.41;;;15.05;100.00
31538;BME280;18147;51.952;6.146;2023-05-07T06:05:31;101618.84;;;15.08;100.00
31538;BME280;18147;51.952;6.146;2023-05-07T06:07:57;101618.41;;;15.14;100.00
31538;BME280;18147;51.952;6.146;2023-05-07T06:10:25;101612.34;;;15.36;100.00
31538;BME280;18147;51.952;6.146;2023-05-07T06:12:52;101617.97;;;15.33;100.00
31538;BME280;18147;51.952;6.146;2023-05-07T06:15:18;101619.03;;;15.17;100.00
31538;BME280;18147;51.952;6.146;2023-05-07T06:17:44;101627.31;;;15.14;100.00
31538;BME280;18147;51.952;6.146;2023-05-07T06:20:10;101622.47;;;15.19;100.00
31538;BME280;18147;51.952;6.146;2023-05-07T06:22:37;101626.03;;;15.07;100.00
31538;BME280;18147;51.952;6.146;2023-05-07T06:25:04;101628.56;;;14.96;100.00
31538;BME280;18147;51.952;6.146;2023-05-07T06:27:30;101637.22;;;15.26;100.00
31538;BME280;18147;51.952;6.146;2023-05-07T06:29:57;101635.59;;;15.24;100.00
31538;BME280;18147;51.952;6.146;2023-05-07T06:32:22;101638.69;;;15.31;100.00
31538;BME280;18147;51.952;6.146;2023-05-07T06:34:49;101639.13;;;15.24;100.00
31538;BME280;18147;51.952;6.146;2023-05-07T06:37:15;101638.28;;;15.24;100.00
31538;BME280;18147;51.952;6.146;2023-05-07T06:39:57;101643.66;;;15.24;100.00
31538;BME280;18147;51.952;6.146;2023-05-07T06:42:23;101637.84;;;15.43;100.00
31538;BME280;18147;51.952;6.146;2023-05-07T06:44:49;101643.75;;;15.22;100.00
31538;BME280;18147;51.952;6.146;2023-05-07T06:47:16;101644.41;;;15.39;100.00
31538;BME280;18147;51.952;6.146;2023-05-07T06:49:44;101646.34;;;15.37;100.00
31538;BME280;18147;51.952;6.146;2023-05-07T06:52:14;101645.34;;;15.50;100.00
31538;BME280;18147;51.952;6.146;2023-05-07T06:54:40;101642.44;;;15.53;100.00
31538;BME280;18147;51.952;6.146;2023-05-07T06:57:06;101639.34;;;15.47;100.00
31538;BME280;18147;51.952;6.146;2023-05-07T06:59:32;101634.38;;;15.41;100.00
31538;BME280;18147;51.952;6.146;2023-05-07T07:01:58;101636.34;;;15.51;100.00
31538;BME280;18147;51.952;6.146;2023-05-07T07:04:24;101640.09;;;15.49;100.00
31538;BME280;18147;51.952;6.146;2023-05-07T07:06:58;101631.59;;;15.68;100.00
31538;BME280;18147;51.952;6.146;2023-05-07T07:09:24;101643.63;;;15.62;100.00
31538;BME280;18147;51.952;6.146;2023-05-07T07:11:51;101630.50;;;15.70;100.00
31538;BME280;18147;51.952;6.146;2023-05-07T07:14:17;101624.16;;;15.59;100.00
31538;BME280;18147;51.952;6.146;2023-05-07T07:16:47;101628.66;;;15.71;100.00
31538;BME280;18147;51.952;6.146;2023-05-07T07:19:14;101631.56;;;16.17;100.00
31538;BME280;18147;51.952;6.146;2023-05-07T07:21:41;101630.28;;;16.10;100.00
31538;BME280;18147;51.952;6.146;2023-05-07T07:24:07;101633.56;;;16.62;100.00
31538;BME280;18147;51.952;6.146;2023-05-07T07:26:33;101628.47;;;17.16;100.00
31538;BME280;18147;51.952;6.146;2023-05-07T07:29:00;101628.03;;;17.45;100.00
31538;BME280;18147;51.952;6.146;2023-05-07T07:31:25;101614.53;;;17.33;100.00
31538;BME280;18147;51.952;6.146;2023-05-07T07:33:51;101622.03;;;17.52;100.00
31538;BME280;18147;51.952;6.146;2023-05-07T07:36:17;101626.53;;;17.41;100.00
31538;BME280;18147;51.952;6.146;2023-05-07T07:38:42;101633.03;;;17.60;100.00
31538;BME280;18147;51.952;6.146;2023-05-07T07:41:09;101635.00;;;17.36;100.00
31538;BME280;18147;51.952;6.146;2023-05-07T07:43:38;101637.91;;;17.11;100.00
31538;BME280;18147;51.952;6.146;2023-05-07T07:46:05;101629.34;;;17.17;100.00
31538;BME280;18147;51.952;6.146;2023-05-07T07:48:33;101633.28;;;17.24;100.00
31538;BME280;18147;51.952;6.146;2023-05-07T07:50:59;101633.41;;;17.45;100.00
31538;BME280;18147;51.952;6.146;2023-05-07T07:53:24;101632.06;;;17.28;100.00
31538;BME280;18147;51.952;6.146;2023-05-07T07:55:50;101632.91;;;17.51;100.00
31538;BME280;18147;51.952;6.146;2023-05-07T07:58:19;101637.47;;;17.28;100.00
31538;BME280;18147;51.952;6.146;2023-05-07T08:00:47;101633.53;;;17.43;100.00
31538;BME280;18147;51.952;6.146;2023-05-07T08:03:14;101635.47;;;17.19;100.00
31538;BME280;18147;51.952;6.146;2023-05-07T08:05:45;101628.66;;;17.48;100.00
31538;BME280;18147;51.952;6.146;2023-05-07T08:08:11;101628.16;;;17.77;100.00
31538;BME280;18147;51.952;6.146;2023-05-07T08:10:38;101629.44;;;18.16;100.00
31538;BME280;18147;51.952;6.146;2023-05-07T08:13:10;101625.81;;;18.27;100.00
31538;BME280;18147;51.952;6.146;2023-05-07T08:15:38;101618.19;;;18.43;100.00
31538;BME280;18147;51.952;6.146;2023-05-07T08:18:03;101621.53;;;18.56;100.00
31538;BME280;18147;51.952;6.146;2023-05-07T08:20:31;101624.09;;;18.90;100.00
31538;BME280;18147;51.952;6.146;2023-05-07T08:22:57;101628.59;;;18.48;100.00
31538;BME280;18147;51.952;6.146;2023-05-07T08:25:23;101621.72;;;18.76;100.00
31538;BME280;18147;51.952;6.146;2023-05-07T08:27:48;101628.16;;;18.63;100.00
31538;BME280;18147;51.952;6.146;2023-05-07T08:30:15;101624.34;;;18.87;100.00
31538;BME280;18147;51.952;6.146;2023-05-07T08:32:41;101619.78;;;18.67;100.00
31538;BME280;18147;51.952;6.146;2023-05-07T08:35:07;101618.38;;;18.51;100.00
31538;BME280;18147;51.952;6.146;2023-05-07T08:37:32;101625.28;;;19.18;100.00
31538;BME280;18147;51.952;6.146;2023-05-07T08:39:59;101620.03;;;19.57;100.00
31538;BME280;18147;51.952;6.146;2023-05-07T08:42:31;101618.28;;;19.15;100.00
31538;BME280;18147;51.952;6.146;2023-05-07T08:44:59;101612.16;;;19.75;100.00
31538;BME280;18147;51.952;6.146;2023-05-07T08:47:29;101618.59;;;19.43;100.00
31538;BME280;18147;51.952;6.146;2023-05-07T08:50:02;101631.81;;;19.46;100.00
31538;BME280;18147;51.952;6.146;2023-05-07T08:52:27;101626.00;;;19.81;100.00
31538;BME280;18147;51.952;6.146;2023-05-07T08:54:53;101624.28;;;19.50;100.00
31538;BME280;18147;51.952;6.146;2023-05-07T08:57:19;101624.00;;;19.22;100.00
31538;BME280;18147;51.952;6.146;2023-05-07T08:59:46;101614.91;;;19.84;100.00
31538;BME280;18147;51.952;6.146;2023-05-07T09:02:12;101623.22;;;20.12;100.00
31538;BME280;18147;51.952;6.146;2023-05-07T09:04:39;101622.59;;;19.79;100.00
31538;BME280;18147;51.952;6.146;2023-05-07T09:07:04;101627.13;;;20.48;100.00
31538;BME280;18147;51.952;6.146;2023-05-07T09:09:34;101628.13;;;20.47;100.00
31538;BME280;18147;51.952;6.146;2023-05-07T09:12:02;101624.94;;;20.42;100.00
31538;BME280;18147;51.952;6.146;2023-05-07T09:14:34;101632.63;;;20.17;100.00
31538;BME280;18147;51.952;6.146;2023-05-07T09:17:01;101625.66;;;20.25;100.00
31538;BME280;18147;51.952;6.146;2023-05-07T09:19:27;101627.84;;;20.60;100.00
31538;BME280;18147;51.952;6.146;2023-05-07T09:22:02;101623.72;;;20.56;100.00
31538;BME280;18147;51.952;6.146;2023-05-07T09:24:32;101632.13;;;20.72;100.00
31538;BME280;18147;51.952;6.146;2023-05-07T09:27:07;101629.94;;;20.27;100.00
31538;BME280;18147;51.952;6.146;2023-05-07T09:29:35;101628.69;;;20.70;100.00
31538;BME280;18147;51.952;6.146;2023-05-07T09:32:04;101627.84;;;20.79;100.00
31538;BME280;18147;51.952;6.146;2023-05-07T09:34:31;101629.13;;;20.85;100.00
31538;BME280;18147;51.952;6.146;2023-05-07T09:37:05;101623.97;;;20.62;100.00
31538;BME280;18147;51.952;6.146;2023-05-07T09:42:10;101623.72;;;21.41;99.27
31538;BME280;18147;51.952;6.146;2023-05-07T09:44:41;101629.81;;;20.97;100.00
31538;BME280;18147;51.952;6.146;2023-05-07T09:47:11;101623.28;;;21.46;94.91
31538;BME280;18147;51.952;6.146;2023-05-07T09:49:47;101624.97;;;21.47;100.00
31538;BME280;18147;51.952;6.146;2023-05-07T09:52:14;101615.34;;;21.62;100.00
31538;BME280;18147;51.952;6.146;2023-05-07T09:54:46;101619.59;;;21.37;99.65
31538;BME280;18147;51.952;6.146;2023-05-07T09:57:15;101621.34;;;21.19;100.00
31538;BME280;18147;51.952;6.146;2023-05-07T09:59:49;101615.59;;;21.22;96.00
31538;BME280;18147;51.952;6.146;2023-05-07T10:02:19;101609.56;;;21.28;89.54
31538;BME280;18147;51.952;6.146;2023-05-07T10:04:49;101613.97;;;21.49;87.63
31538;BME280;18147;51.952;6.146;2023-05-07T10:07:19;101608.06;;;22.08;87.88
31538;BME280;18147;51.952;6.146;2023-05-07T10:09:48;101614.53;;;21.52;80.49
31538;BME280;18147;51.952;6.146;2023-05-07T10:12:23;101616.28;;;22.26;86.53
31538;BME280;18147;51.952;6.146;2023-05-07T10:14:50;101607.25;;;22.43;86.77
31538;BME280;18147;51.952;6.146;2023-05-07T10:17:17;101611.75;;;22.17;82.67
31538;BME280;18147;51.952;6.146;2023-05-07T10:19:44;101610.09;;;22.78;75.25
31538;BME280;18147;51.952;6.146;2023-05-07T10:22:13;101611.66;;;22.80;80.05
31538;BME280;18147;51.952;6.146;2023-05-07T10:24:44;101616.56;;;22.59;78.68
31538;BME280;18147;51.952;6.146;2023-05-07T10:27:16;101616.91;;;22.20;83.20
31538;BME280;18147;51.952;6.146;2023-05-07T10:29:59;101624.00;;;21.76;83.35
31538;BME280;18147;51.952;6.146;2023-05-07T10:35:17;101616.50;;;22.51;79.91
31538;BME280;18147;51.952;6.146;2023-05-07T10:37:45;101607.41;;;22.42;80.32
31538;BME280;18147;51.952;6.146;2023-05-07T10:40:12;101605.22;;;22.63;74.16
31538;BME280;18147;51.952;6.146;2023-05-07T10:42:38;101608.69;;;23.43;76.28
31538;BME280;18147;51.952;6.146;2023-05-07T10:45:14;101617.78;;;22.82;78.70
31538;BME280;18147;51.952;6.146;2023-05-07T10:48:16;101608.31;;;22.68;81.60
31538;BME280;18147;51.952;6.146;2023-05-07T10:51:18;101610.31;;;22.40;78.38
31538;BME280;18147;51.952;6.146;2023-05-07T10:53:44;101606.44;;;22.87;85.32
31538;BME280;18147;51.952;6.146;2023-05-07T10:58:53;101612.69;;;22.26;82.26
31538;BME280;18147;51.952;6.146;2023-05-07T11:04:19;101611.88;;;22.69;81.03
31538;BME280;18147;51.952;6.146;2023-05-07T11:15:10;101612.47;;;21.91;84.24
31538;BME280;18147;51.952;6.146;2023-05-07T11:17:57;101608.50;;;22.04;85.41
31538;BME280;18147;51.952;6.146;2023-05-07T11:20:44;101613.06;;;22.13;87.24
31538;BME280;18147;51.952;6.146;2023-05-07T11:26:15;101604.69;;;22.60;79.16
31538;BME280;18147;51.952;6.146;2023-05-07T11:28:43;101606.75;;;22.84;81.88
31538;BME280;18147;51.952;6.146;2023-05-07T11:31:10;101604.78;;;22.50;89.08
31538;BME280;18147;51.952;6.146;2023-05-07T11:33:37;101605.94;;;22.47;87.47
31538;BME280;18147;51.952;6.146;2023-05-07T11:36:08;101606.31;;;22.53;82.58
31538;BME280;18147;51.952;6.146;2023-05-07T11:38:38;101607.16;;;22.53;86.46
31538;BME280;18147;51.952;6.146;2023-05-07T11:41:07;101607.94;;;22.10;92.44
31538;BME280;18147;51.952;6.146;2023-05-07T11:43:36;101600.41;;;22.57;89.05
31538;BME280;18147;51.952;6.146;2023-05-07T11:46:11;101607.63;;;22.48;89.40
31538;BME280;18147;51.952;6.146;2023-05-07T11:48:37;101610.38;;;22.31;86.73
31538;BME280;18147;51.952;6.146;2023-05-07T11:51:05;101609.88;;;22.53;87.91
31538;BME280;18147;51.952;6.146;2023-05-07T11:53:39;101608.47;;;22.49;84.26
31538;BME280;18147;51.952;6.146;2023-05-07T11:56:09;101612.06;;;22.67;83.04
31538;BME280;18147;51.952;6.146;2023-05-07T11:58:37;101613.38;;;23.25;82.36
31538;BME280;18147;51.952;6.146;2023-05-07T12:01:03;101613.19;;;22.83;83.67
31538;BME280;18147;51.952;6.146;2023-05-07T12:03:29;101612.31;;;22.38;85.65
31538;BME280;18147;51.952;6.146;2023-05-07T12:05:55;101608.81;;;22.46;80.83
31538;BME280;18147;51.952;6.146;2023-05-07T12:08:24;101608.81;;;22.46;82.55
31538;BME280;18147;51.952;6.146;2023-05-07T12:10:50;101599.22;;;22.78;79.88
31538;BME280;18147;51.952;6.146;2023-05-07T12:13:21;101598.84;;;22.90;87.61
31538;BME280;18147;51.952;6.146;2023-05-07T12:15:54;101607.72;;;22.57;78.44
31538;BME280;18147;51.952;6.146;2023-05-07T12:18:21;101601.63;;;22.81;79.73
31538;BME280;18147;51.952;6.146;2023-05-07T12:20:48;101603.69;;;22.61;83.47
31538;BME280;18147;51.952;6.146;2023-05-07T12:23:15;101603.44;;;22.90;77.09
31538;BME280;18147;51.952;6.146;2023-05-07T12:25:42;101602.16;;;23.02;77.11
31538;BME280;18147;51.952;6.146;2023-05-07T12:28:16;101606.22;;;22.80;84.19
31538;BME280;18147;51.952;6.146;2023-05-07T12:30:47;101604.78;;;22.50;78.78
31538;BME280;18147;51.952;6.146;2023-05-07T12:33:17;101605.69;;;22.77;77.69
31538;BME280;18147;51.952;6.146;2023-05-07T12:35:47;101614.22;;;22.64;78.69
31538;BME280;18147;51.952;6.146;2023-05-07T12:38:14;101609.84;;;22.45;81.29
31538;BME280;18147;51.952;6.146;2023-05-07T12:40:54;101610.34;;;22.84;81.55
31538;BME280;18147;51.952;6.146;2023-05-07T12:43:21;101614.59;;;22.69;81.78
31538;BME280;18147;51.952;6.146;2023-05-07T12:45:48;101618.00;;;22.45;84.71
31538;BME280;18147;51.952;6.146;2023-05-07T12:48:19;101615.03;;;22.56;81.66
31538;BME280;18147;51.952;6.146;2023-05-07T12:50:44;101613.06;;;22.48;80.52
31538;BME280;18147;51.952;6.146;2023-05-07T12:53:11;101622.97;;;22.04;78.65
31538;BME280;18147;51.952;6.146;2023-05-07T12:55:45;101620.06;;;22.15;82.68
31538;BME280;18147;51.952;6.146;2023-05-07T12:58:16;101617.56;;;21.77;81.67
31538;BME280;18147;51.952;6.146;2023-05-07T13:00:42;101623.72;;;21.96;80.72
31538;BME280;18147;51.952;6.146;2023-05-07T13:03:10;101627.84;;;22.01;82.14
31538;BME280;18147;51.952;6.146;2023-05-07T13:05:36;101625.13;;;22.01;80.11
31538;BME280;18147;51.952;6.146;2023-05-07T13:08:01;101639.03;;;21.70;83.91
31538;BME280;18147;51.952;6.146;2023-05-07T13:10:27;101627.47;;;21.95;83.78